createdAt,value
2018-11-13T00:01:41.797Z,32.35
2018-11-13T00:04:17.755Z,33.13
2018-11-13T00:06:54.145Z,32.77
2018-11-13T00:09:30.099Z,32.33
2018-11-13T00:12:06.277Z,32.38
2018-11-13T00:14:41.752Z,33.23
2018-11-13T00:17:17.492Z,34.50
2018-11-13T00:19:53.276Z,37.10
2018-11-13T00:22:29.293Z,35.70
2018-11-13T00:25:04.916Z,36.70
2018-11-13T00:27:40.385Z,36.20
2018-11-13T00:30:20.054Z,37.78
2018-11-13T00:32:56.110Z,39.30
2018-11-13T00:35:31.286Z,38.40
2018-11-13T00:38:06.936Z,37.30
2018-11-13T00:40:42.953Z,39.17
2018-11-13T00:43:18.586Z,43.55
2018-11-13T00:45:55.209Z,45.67
2018-11-13T00:48:31.277Z,44.77
2018-11-13T00:51:07.278Z,42.90
2018-11-13T00:53:43.010Z,44.63
2018-11-13T00:56:19.081Z,47.17
2018-11-13T00:58:55.018Z,47.50
2018-11-13T01:01:30.870Z,47.45
2018-11-13T01:04:06.806Z,51.10
2018-11-13T01:06:43.049Z,49.57
2018-11-13T01:09:18.954Z,48.80
2018-11-13T01:11:54.994Z,50.20
2018-11-13T01:14:31.729Z,42.17
2018-11-13T01:17:07.325Z,35.43
2018-11-13T01:19:44.108Z,31.15
2018-11-13T01:22:20.105Z,27.87
2018-11-13T01:24:55.652Z,24.80
2018-11-13T01:27:32.080Z,23.42
2018-11-13T01:30:09.556Z,22.43
2018-11-13T01:32:46.301Z,20.82
2018-11-13T01:35:22.518Z,19.73
2018-11-13T01:37:58.270Z,19.00
2018-11-13T01:40:34.408Z,18.50
2018-11-13T01:43:10.299Z,17.55
2018-11-13T01:45:46.340Z,17.97
2018-11-13T01:48:21.941Z,16.33
2018-11-13T01:50:58.302Z,16.40
2018-11-13T01:53:33.891Z,17.02
2018-11-13T01:57:21.143Z,7.87
2018-11-13T01:59:57.134Z,15.87
2018-11-13T02:02:33.905Z,14.65
2018-11-13T02:05:10.306Z,14.38
2018-11-13T02:07:45.927Z,14.33
2018-11-13T02:10:21.887Z,7.08
2018-11-13T02:12:58.129Z,15.60
2018-11-13T02:15:34.302Z,15.32
2018-11-13T02:18:09.897Z,16.37
2018-11-13T02:20:45.770Z,14.78
2018-11-13T02:23:21.886Z,15.78
2018-11-13T02:25:57.879Z,14.30
2018-11-13T02:28:33.805Z,14.75
2018-11-13T02:31:09.558Z,14.85
2018-11-13T02:33:45.481Z,15.55
2018-11-13T02:36:21.302Z,15.65
2018-11-13T02:38:56.991Z,15.37
2018-11-13T02:41:33.032Z,14.87
2018-11-13T02:44:09.128Z,13.78
2018-11-13T02:46:45.325Z,14.37
2018-11-13T02:49:21.022Z,14.23
2018-11-13T02:51:56.761Z,14.50
2018-11-13T02:54:32.177Z,13.60
2018-11-13T02:57:08.134Z,14.63
2018-11-13T02:59:43.561Z,15.00
2018-11-13T03:02:19.050Z,13.53
2018-11-13T03:04:54.887Z,13.67
2018-11-13T03:07:31.052Z,14.30
2018-11-13T03:10:06.858Z,14.33
2018-11-13T03:12:42.467Z,14.20
2018-11-13T03:15:18.957Z,14.37
2018-11-13T03:17:54.809Z,14.23
2018-11-13T03:20:30.409Z,15.50
2018-11-13T03:23:06.077Z,15.13
2018-11-13T03:25:41.786Z,14.93
2018-11-13T03:28:17.537Z,15.08
2018-11-13T03:30:53.342Z,15.70
2018-11-13T03:33:29.110Z,15.20
2018-11-13T03:36:05.843Z,13.93
2018-11-13T03:38:41.564Z,12.10
2018-11-13T03:41:17.121Z,13.85
2018-11-13T03:43:53.011Z,15.08
2018-11-13T03:46:29.249Z,16.47
2018-11-13T03:49:05.113Z,16.57
2018-11-13T03:51:40.922Z,19.48
2018-11-13T03:54:17.251Z,20.75
2018-11-13T03:56:52.957Z,18.93
2018-11-13T03:59:29.795Z,19.00
2018-11-13T04:02:07.098Z,16.37
2018-11-13T04:04:43.362Z,20.90
2018-11-13T04:07:19.008Z,21.60
2018-11-13T04:09:55.492Z,23.60
2018-11-13T04:12:31.074Z,23.38
2018-11-13T04:15:07.536Z,23.27
2018-11-13T04:17:43.604Z,22.20
2018-11-13T04:20:20.763Z,28.50
2018-11-13T04:22:56.799Z,27.37
2018-11-13T04:25:32.786Z,23.43
2018-11-13T04:28:09.128Z,23.00
2018-11-13T04:30:45.221Z,20.40
2018-11-13T04:33:21.470Z,20.43
2018-11-13T04:35:57.145Z,18.37
2018-11-13T04:38:33.449Z,19.32
2018-11-13T04:41:11.089Z,19.30
2018-11-13T04:43:48.131Z,17.92
2018-11-13T04:46:24.129Z,17.60
2018-11-13T04:49:00.413Z,17.30
2018-11-13T04:51:37.136Z,16.17
2018-11-13T04:54:13.435Z,17.30
2018-11-13T04:56:49.091Z,17.23
2018-11-13T04:59:25.258Z,15.53
2018-11-13T05:02:01.112Z,15.77
2018-11-13T05:04:37.463Z,15.15
2018-11-13T05:07:13.509Z,14.47
2018-11-13T05:09:50.862Z,13.93
2018-11-13T05:12:27.158Z,15.00
2018-11-13T05:15:03.482Z,14.13
2018-11-13T05:17:40.354Z,14.07
2018-11-13T05:20:17.797Z,14.25
2018-11-13T05:22:54.422Z,13.68
2018-11-13T05:25:31.166Z,12.98
2018-11-13T05:28:07.601Z,12.70
2018-11-13T05:30:43.765Z,13.10
2018-11-13T05:33:20.477Z,13.48
2018-11-13T05:35:56.830Z,13.43
2018-11-13T05:38:34.254Z,13.00
2018-11-13T05:41:10.135Z,12.80
2018-11-13T05:43:45.959Z,12.80
2018-11-13T05:46:22.566Z,12.25
2018-11-13T05:48:58.930Z,12.43
2018-11-13T05:51:35.305Z,13.62
2018-11-13T05:54:11.137Z,13.10
2018-11-13T05:56:47.159Z,12.23
2018-11-13T05:59:23.513Z,12.18
2018-11-13T06:01:59.374Z,13.38
2018-11-13T06:04:35.781Z,12.07
2018-11-13T06:07:11.787Z,12.10
2018-11-13T06:09:47.570Z,12.20
2018-11-13T06:12:24.411Z,12.07
2018-11-13T06:15:00.627Z,12.27
2018-11-13T06:17:36.423Z,11.60
2018-11-13T06:20:16.342Z,12.45
2018-11-13T06:22:53.321Z,12.55
2018-11-13T06:25:29.317Z,11.87
2018-11-13T06:28:05.054Z,11.30
2018-11-13T06:30:41.261Z,12.07
2018-11-13T06:33:17.106Z,12.20
2018-11-13T06:35:53.264Z,11.93
2018-11-13T06:38:29.092Z,14.23
2018-11-13T06:41:04.894Z,19.02
2018-11-13T06:43:41.207Z,15.50
2018-11-13T06:46:16.919Z,19.20
2018-11-13T06:48:53.117Z,15.23
2018-11-13T06:51:29.090Z,13.65
2018-11-13T06:54:18.369Z,16.07
2018-11-13T06:56:54.087Z,12.73
2018-11-13T06:59:29.521Z,13.10
2018-11-13T07:02:05.265Z,13.50
2018-11-13T07:04:41.233Z,14.93
2018-11-13T07:07:17.092Z,12.90
2018-11-13T07:09:52.975Z,15.08
2018-11-13T07:12:28.889Z,15.80
2018-11-13T07:15:04.742Z,15.93
2018-11-13T07:17:40.735Z,15.88
2018-11-13T07:20:17.418Z,16.23
2018-11-13T07:22:53.271Z,18.92
2018-11-13T07:25:28.937Z,18.60
2018-11-13T07:28:05.102Z,21.50
2018-11-13T07:30:41.269Z,18.42
2018-11-13T07:33:17.095Z,20.80
2018-11-13T07:35:52.965Z,19.80
2018-11-13T07:38:28.931Z,20.40
2018-11-13T07:41:05.347Z,18.07
2018-11-13T07:43:40.930Z,20.57
2018-11-13T07:46:17.116Z,20.77
2018-11-13T07:48:52.885Z,17.80
2018-11-13T07:54:03.042Z,18.17
2018-11-13T07:56:39.261Z,17.90
2018-11-13T07:59:15.001Z,19.03
2018-11-13T08:01:51.089Z,19.37
2018-11-13T08:04:27.271Z,14.43
2018-11-13T08:07:03.770Z,16.47
2018-11-13T08:09:40.490Z,20.55
2018-11-13T08:12:17.085Z,20.20
2018-11-13T08:14:54.432Z,19.40
2018-11-13T08:17:30.989Z,20.20
2018-11-13T08:20:07.111Z,21.23
2018-11-13T08:22:43.472Z,21.27
2018-11-13T08:25:19.516Z,19.15
2018-11-13T08:27:55.542Z,17.20
2018-11-13T08:30:32.070Z,17.50
2018-11-13T08:33:08.476Z,17.45
2018-11-13T08:35:44.781Z,19.37
2018-11-13T08:38:21.088Z,18.12
2018-11-13T08:40:57.302Z,17.80
2018-11-13T08:43:33.455Z,17.27
2018-11-13T08:46:09.919Z,19.37
2018-11-13T08:48:45.841Z,20.25
2018-11-13T08:51:22.254Z,21.17
2018-11-13T08:53:58.275Z,19.87
2018-11-13T08:56:34.413Z,22.58
2018-11-13T08:59:10.431Z,22.53
2018-11-13T09:01:47.049Z,22.58
2018-11-13T09:04:23.382Z,22.42
2018-11-13T09:06:59.308Z,23.33
2018-11-13T09:09:35.944Z,23.60
2018-11-13T09:12:12.197Z,24.45
2018-11-13T09:14:48.397Z,24.33
2018-11-13T09:17:24.896Z,24.82
2018-11-13T09:20:00.922Z,23.07
2018-11-13T09:22:37.443Z,23.03
2018-11-13T09:25:16.554Z,20.47
2018-11-13T09:30:27.219Z,22.13
2018-11-13T09:33:03.325Z,23.20
2018-11-13T09:35:39.846Z,23.23
2018-11-13T09:38:16.208Z,23.47
2018-11-13T09:40:53.273Z,23.20
2018-11-13T09:43:29.709Z,23.10
2018-11-13T09:46:06.171Z,23.98
2018-11-13T09:48:43.090Z,22.87
2018-11-13T09:51:19.665Z,22.63
2018-11-13T09:53:55.484Z,21.80
2018-11-13T09:56:32.145Z,23.02
2018-11-13T09:59:08.905Z,23.00
2018-11-13T10:01:45.188Z,23.40
2018-11-13T10:04:22.214Z,20.60
2018-11-13T10:06:58.311Z,21.37
2018-11-13T10:09:34.413Z,22.40
2018-11-13T10:12:10.717Z,23.45
2018-11-13T10:14:46.833Z,23.15
2018-11-13T10:17:22.908Z,22.63
2018-11-13T10:19:59.254Z,22.73
2018-11-13T10:22:35.700Z,22.93
2018-11-13T10:25:13.243Z,21.63
2018-11-13T10:27:49.548Z,22.67
2018-11-13T10:30:26.833Z,21.27
2018-11-13T10:33:03.078Z,23.05
2018-11-13T10:35:38.958Z,21.63
2018-11-13T10:38:14.906Z,21.30
2018-11-13T10:40:51.156Z,22.13
2018-11-13T10:43:27.086Z,20.57
2018-11-13T10:46:03.076Z,21.55
2018-11-13T10:48:39.429Z,20.13
2018-11-13T10:51:15.833Z,21.00
2018-11-13T10:53:52.075Z,21.20
2018-11-13T10:56:27.893Z,21.17
2018-11-13T10:59:03.884Z,21.27
2018-11-13T11:01:44.257Z,21.17
2018-11-13T11:04:24.094Z,21.43
2018-11-13T11:07:00.270Z,20.83
2018-11-13T11:09:36.373Z,21.37
2018-11-13T11:12:12.832Z,21.40
2018-11-13T11:14:48.980Z,21.20
2018-11-13T11:17:25.269Z,21.20
2018-11-13T11:20:01.282Z,19.90
2018-11-13T11:22:37.571Z,20.60
2018-11-13T11:25:15.359Z,18.20
2018-11-13T11:27:51.853Z,20.17
2018-11-13T11:30:27.845Z,18.67
2018-11-13T11:33:04.255Z,19.73
2018-11-13T11:35:40.262Z,18.60
2018-11-13T11:38:16.253Z,19.03
2018-11-13T11:40:52.401Z,19.63
2018-11-13T11:43:28.988Z,19.35
2018-11-13T11:46:05.076Z,19.83
2018-11-13T11:48:41.082Z,19.50
2018-11-13T11:51:17.086Z,19.23
2018-11-13T11:53:53.128Z,19.80
2018-11-13T11:56:29.272Z,19.20
2018-11-13T11:59:05.258Z,18.90
2018-11-13T12:01:41.323Z,19.30
2018-11-13T12:04:17.522Z,19.77
2018-11-13T12:06:53.494Z,18.37
2018-11-13T12:09:29.734Z,18.63
2018-11-13T12:12:05.943Z,18.42
2018-11-13T12:14:41.770Z,18.40
2018-11-13T12:17:18.067Z,19.07
2018-11-13T12:19:54.090Z,18.75
2018-11-13T12:22:30.259Z,18.17
2018-11-13T12:25:06.448Z,18.20
2018-11-13T12:27:43.311Z,17.80
2018-11-13T12:30:23.087Z,18.27
2018-11-13T12:32:59.092Z,18.43
2018-11-13T12:35:35.266Z,17.65
2018-11-13T12:40:12.460Z,17.62
2018-11-13T12:42:49.496Z,17.10
2018-11-13T12:45:25.541Z,17.40
2018-11-13T12:48:01.278Z,17.77
2018-11-13T12:50:41.100Z,18.70
2018-11-13T12:53:17.277Z,17.37
2018-11-13T12:55:53.806Z,17.15
2018-11-13T12:58:30.736Z,17.83
2018-11-13T13:01:07.072Z,17.37
2018-11-13T13:03:42.934Z,16.65
2018-11-13T13:06:19.056Z,15.35
2018-11-13T13:08:55.020Z,16.87
2018-11-13T13:11:31.102Z,17.27
2018-11-13T13:14:12.374Z,17.47
2018-11-13T13:16:48.849Z,17.70
2018-11-13T13:19:25.064Z,17.15
2018-11-13T13:22:01.503Z,16.05
2018-11-13T13:24:37.983Z,15.97
2018-11-13T13:27:13.251Z,16.42
2018-11-13T13:29:49.422Z,16.10
2018-11-13T13:32:25.477Z,17.12
2018-11-13T13:35:01.481Z,16.02
2018-11-13T13:37:37.461Z,17.30
2018-11-13T13:40:13.276Z,16.23
2018-11-13T13:42:50.058Z,16.07
2018-11-13T13:45:26.419Z,16.02
2018-11-13T13:48:02.918Z,15.80
2018-11-13T13:50:39.265Z,15.85
2018-11-13T13:53:16.430Z,15.80
2018-11-13T13:55:53.073Z,15.58
2018-11-13T13:58:30.080Z,14.63
2018-11-13T14:01:06.064Z,15.98
2018-11-13T14:03:42.310Z,15.23
2018-11-13T14:06:18.264Z,14.63
2018-11-13T14:08:54.365Z,15.40
2018-11-13T14:11:30.838Z,15.13
2018-11-13T14:14:07.028Z,15.03
2018-11-13T14:16:43.272Z,14.97
2018-11-13T14:19:19.058Z,15.00
2018-11-13T14:21:55.085Z,15.15
2018-11-13T14:24:31.096Z,14.43
2018-11-13T14:27:08.104Z,14.63
2018-11-13T14:29:44.089Z,14.43
2018-11-13T14:32:20.855Z,14.53
2018-11-13T14:34:57.004Z,13.93
2018-11-13T14:37:33.088Z,14.60
2018-11-13T14:40:22.715Z,13.70
2018-11-13T14:42:58.876Z,13.03
2018-11-13T14:45:35.263Z,14.70
2018-11-13T14:48:12.088Z,13.30
2018-11-13T14:50:48.710Z,13.83
2018-11-13T14:53:25.015Z,13.08
2018-11-13T14:56:01.294Z,14.33
2018-11-13T14:58:37.524Z,13.20
2018-11-13T15:03:59.264Z,13.30
2018-11-13T15:06:36.167Z,13.30
2018-11-13T15:09:13.277Z,13.30
2018-11-13T15:11:49.425Z,14.10
2018-11-13T15:14:54.722Z,13.68
2018-11-13T15:17:30.980Z,14.07
2018-11-13T15:20:07.249Z,13.03
2018-11-13T15:22:44.652Z,13.88
2018-11-13T15:25:21.077Z,12.82
2018-11-13T15:27:57.088Z,14.07
2018-11-13T15:30:36.150Z,13.60
2018-11-13T15:33:16.892Z,13.93
2018-11-13T15:35:53.222Z,12.28
2018-11-13T15:38:29.264Z,13.90
2018-11-13T15:41:05.088Z,13.63
2018-11-13T15:43:41.292Z,12.85
2018-11-13T15:46:18.692Z,14.00
2018-11-13T15:48:55.072Z,14.28
2018-11-13T15:51:31.298Z,13.30
2018-11-13T15:54:07.454Z,14.33
2018-11-13T15:56:43.963Z,14.20
2018-11-13T15:59:20.086Z,14.93
2018-11-13T16:01:56.207Z,14.20
2018-11-13T16:04:32.053Z,14.40
2018-11-13T16:07:08.217Z,15.13
2018-11-13T16:09:45.102Z,13.83
2018-11-13T16:12:21.704Z,14.45
2018-11-13T16:14:58.293Z,17.07
2018-11-13T16:17:35.092Z,15.13
2018-11-13T16:20:11.272Z,14.97
2018-11-13T16:22:47.746Z,15.85
2018-11-13T16:25:24.056Z,15.77
2018-11-13T16:28:00.099Z,16.40
2018-11-13T16:30:37.637Z,14.90
2018-11-13T16:35:09.538Z,53.90
2018-11-13T16:37:47.289Z,53.42
2018-11-13T16:40:25.290Z,57.85
2018-11-13T16:43:01.494Z,61.83
2018-11-13T16:45:38.443Z,59.58
2018-11-13T16:48:15.568Z,57.80
2018-11-13T16:50:52.545Z,69.97
2018-11-13T16:53:29.336Z,77.53
2018-11-13T16:56:06.263Z,65.57
2018-11-13T16:58:42.524Z,66.00
2018-11-13T17:01:19.015Z,4.70
2018-11-13T17:03:55.532Z,2.40
2018-11-13T17:06:32.005Z,34.73
2018-11-13T17:09:11.899Z,47.40
2018-11-13T17:11:48.243Z,59.48
2018-11-13T17:14:24.812Z,39.90
2018-11-13T17:17:01.253Z,32.87
2018-11-13T17:19:37.245Z,26.65
2018-11-13T17:22:13.349Z,21.55
2018-11-13T17:38:34.739Z,13.43
2018-11-13T17:41:12.269Z,12.58
2018-11-13T17:43:49.628Z,25.10
2018-11-13T17:46:24.779Z,30.17
2018-11-13T17:49:02.821Z,22.37
2018-11-13T17:51:39.097Z,28.00
2018-11-13T17:54:16.445Z,24.85
2018-11-13T17:56:53.897Z,29.87
2018-11-13T17:59:30.116Z,33.38
2018-11-13T18:02:07.573Z,33.88
2018-11-13T18:04:45.737Z,33.97
2018-11-13T20:07:41.729Z,22.83
2018-11-13T20:10:22.439Z,22.33
2018-11-13T20:13:00.925Z,21.30
2018-11-13T23:31:38.226Z,14.10
